Point Mugu, California
Current Conditions -  °F | °C
As of 2:10 PM on Saturday 20 Dec 2014 (Local Time) from KNTD Reporting Station
Broken Clouds Broken Clouds  
Wind Chill: 66°   Ceiling: 1500
Heat Index: 66°   Visibility: 10mi
Dew Point: 56°   Wind: 6mph
Humidity: 70%   Direction: 260°W
Pressure: 30.12"   Gusts: NA
Location:  34.12°N, 119.12°W
Report Text: KNTD 202210Z 26005KT 10SM BKN015 BKN040 BKN220 19/13 A3012 RMK AO2 T01890133 $
Loading
Personal Weather Stations






























Interactive Weather Map New forecast layout! Learn more

10-Day Weather Forecast

Advertisements
Track Severe Weather on mobile